Time;durP1;ratioP1;P1;durP2;ratioP2;P2;SDS_P1;SDS_P2;PMS_P1;PMS_P2;Temp;Humidity;BMP_temperature;BMP_pressure;BME280_temperature;BME280_humidity;BME280_pressure;Samples;Min_cycle;Max_cycle;Signal;HPM_P1;HPM_P2
2022/05/18 00:01:30;;;;;;;3.92;2.00;;;;;;;11.20;36.93;101577.47;5082811;28;20028;-74
2022/05/18 00:03:56;;;;;;;5.50;1.92;;;;;;;11.10;38.32;101579.13;5082433;28;20029;-79
2022/05/18 00:06:21;;;;;;;4.15;2.33;;;;;;;11.11;39.42;101577.41;5082644;28;20024;-77
2022/05/18 00:08:46;;;;;;;5.57;2.20;;;;;;;10.95;40.82;101581.59;5082649;28;20023;-75
2022/05/18 00:11:15;;;;;;;6.82;1.88;;;;;;;10.78;41.41;101582.34;5082677;28;20028;-75
2022/05/18 00:13:43;;;;;;;4.88;2.13;;;;;;;10.71;42.11;101578.81;5082451;28;20376;-74
2022/05/18 00:16:09;;;;;;;2.13;1.50;;;;;;;10.65;42.73;101571.81;5064765;28;20016;-74
2022/05/18 00:18:35;;;;;;;4.95;2.00;;;;;;;10.54;43.16;101573.44;5064951;28;20078;-75
2022/05/18 00:21:01;;;;;;;4.35;1.50;;;;;;;10.57;43.74;101577.78;5086436;28;20025;-77
2022/05/18 00:23:28;;;;;;;3.22;1.60;;;;;;;10.47;43.78;101582.00;5085940;28;20021;-75
2022/05/18 00:25:54;;;;;;;4.20;1.85;;;;;;;10.34;44.20;101578.34;5068188;28;20031;-77
2022/05/18 00:28:19;;;;;;;4.15;1.60;;;;;;;10.17;44.78;101571.25;5085986;28;20024;-78
2022/05/18 00:30:44;;;;;;;7.25;1.83;;;;;;;10.17;46.16;101584.25;5086040;28;20026;-76
2022/05/18 00:33:10;;;;;;;2.90;1.48;;;;;;;10.18;47.00;101596.34;5085746;28;20021;-82
2022/05/18 00:35:38;;;;;;;5.93;2.25;;;;;;;10.16;48.27;101585.94;5067854;28;20031;-76
2022/05/18 00:38:05;;;;;;;2.95;1.80;;;;;;;10.06;49.41;101593.59;5085638;28;20072;-74
2022/05/18 00:40:32;;;;;;;4.50;1.58;;;;;;;9.93;50.47;101590.84;5067619;28;20044;-74
2022/05/18 00:42:57;;;;;;;5.70;1.50;;;;;;;9.90;51.58;101591.66;5067516;28;20024;-80
2022/05/18 00:45:25;;;;;;;2.22;1.40;;;;;;;9.94;52.88;101596.91;5085699;28;20031;-74
2022/05/18 00:47:50;;;;;;;4.38;2.00;;;;;;;9.78;53.30;101596.69;5085723;28;20035;-75
2022/05/18 00:50:28;;;;;;;2.65;1.33;;;;;;;9.69;53.82;101601.75;5085947;28;20025;-74
2022/05/18 00:53:07;;;;;;;2.53;1.70;;;;;;;9.59;53.96;101601.63;5085625;28;20043;-76
2022/05/18 00:55:40;;;;;;;4.10;1.77;;;;;;;9.59;54.94;101606.81;5085535;28;20039;-76
2022/05/18 00:58:19;;;;;;;1.83;1.30;;;;;;;9.53;55.73;101611.91;5085698;28;20078;-74
2022/05/18 01:00:46;;;;;;;5.15;1.90;;;;;;;9.41;55.75;101603.06;5085567;28;20025;-75
2022/05/18 01:03:23;;;;;;;6.22;1.70;;;;;;;9.45;56.30;101614.38;5085188;28;20084;-75
2022/05/18 01:05:54;;;;;;;4.22;1.58;;;;;;;9.37;56.74;101611.66;5085390;28;20233;-76
2022/05/18 01:08:38;;;;;;;3.80;2.05;;;;;;;9.30;56.93;101599.44;5085275;28;20036;-74
2022/05/18 01:11:04;;;;;;;4.95;1.60;;;;;;;9.34;57.87;101621.97;5085292;28;20044;-73
2022/05/18 01:13:29;;;;;;;9.15;2.28;;;;;;;9.27;57.58;101617.53;5085067;28;20519;-74
2022/05/18 01:15:55;;;;;;;6.10;1.73;;;;;;;9.24;57.87;101623.53;5085338;28;20027;-77
2022/05/18 01:18:21;;;;;;;2.60;1.30;;;;;;;9.20;58.22;101618.28;5085023;28;20131;-74
2022/05/18 01:20:48;;;;;;;2.95;1.27;;;;;;;9.17;58.56;101614.78;5084966;28;20347;-73
2022/05/18 01:23:52;;;;;;;2.15;1.40;;;;;;;9.22;58.28;101624.38;5084805;28;20361;-75
2022/05/18 01:26:44;;;;;;;6.88;1.60;;;;;;;9.28;58.74;101616.69;5084392;28;20048;-74
2022/05/18 01:29:10;;;;;;;4.07;1.33;;;;;;;9.25;59.36;101614.06;5085063;28;20078;-79
2022/05/18 01:31:45;;;;;;;7.20;1.70;;;;;;;9.29;59.58;101623.63;5084477;28;20355;-73
2022/05/18 01:34:11;;;;;;;3.08;1.40;;;;;;;9.23;59.85;101615.75;5084841;28;20031;-74
2022/05/18 01:36:37;;;;;;;4.13;1.23;;;;;;;9.22;59.97;101622.63;5084868;28;20017;-79
2022/05/18 01:39:03;;;;;;;5.47;1.00;;;;;;;9.19;60.03;101625.19;5084590;28;20506;-82
2022/05/18 01:41:34;;;;;;;3.13;1.20;;;;;;;9.12;60.20;101631.97;5084804;28;20020;-75
2022/05/18 01:44:00;;;;;;;4.47;1.30;;;;;;;9.00;60.42;101617.09;5084556;28;20033;-74
2022/05/18 01:46:29;;;;;;;3.53;1.67;;;;;;;8.98;60.51;101626.53;5066817;28;20021;-74
2022/05/18 01:48:55;;;;;;;5.22;1.27;;;;;;;8.91;60.74;101617.78;5084376;28;20027;-76
2022/05/18 01:51:43;;;;;;;3.20;1.50;;;;;;;8.93;61.12;101631.66;5066523;28;20020;-75
2022/05/18 01:54:09;;;;;;;4.53;1.77;;;;;;;8.78;61.25;101618.41;5084333;28;20017;-75
2022/05/18 01:56:34;;;;;;;4.35;1.60;;;;;;;8.77;61.24;101624.44;5066351;28;20031;-74
2022/05/18 01:58:59;;;;;;;7.70;1.35;;;;;;;8.72;61.10;101624.34;5084217;28;20405;-74
2022/05/18 02:01:26;;;;;;;3.72;1.33;;;;;;;8.77;61.28;101629.63;5084301;28;20020;-76
2022/05/18 02:03:51;;;;;;;6.00;1.48;;;;;;;8.79;61.15;101631.41;5065436;28;20079;-73
2022/05/18 02:06:17;;;;;;;8.52;1.35;;;;;;;8.73;60.91;101633.88;5083905;28;20472;-75
2022/05/18 02:08:43;;;;;;;5.55;1.20;;;;;;;8.65;61.06;101620.78;5065526;28;20047;-74
2022/05/18 02:11:13;;;;;;;9.52;1.70;;;;;;;8.68;60.57;101628.59;5065651;28;20021;-74
2022/05/18 02:13:39;;;;;;;4.13;1.17;;;;;;;8.63;60.50;101632.81;5083304;28;20020;-75
2022/05/18 02:16:05;;;;;;;6.63;3.25;;;;;;;8.63;60.38;101622.47;5083915;28;20020;-74
2022/05/18 02:18:30;;;;;;;4.80;1.30;;;;;;;8.58;60.24;101634.44;5083535;28;20524;-75
2022/05/18 02:20:56;;;;;;;8.27;1.60;;;;;;;8.64;60.27;101637.13;5083652;28;20105;-74
2022/05/18 02:23:21;;;;;;;2.58;1.33;;;;;;;8.54;60.33;101637.78;5083298;28;20051;-74
2022/05/18 02:25:46;;;;;;;2.60;1.20;;;;;;;8.46;60.47;101628.97;5083577;28;20039;-74
2022/05/18 02:28:12;;;;;;;3.80;1.30;;;;;;;8.46;60.04;101635.03;5083426;28;20495;-74
2022/05/18 02:30:37;;;;;;;2.35;1.30;;;;;;;8.38;60.03;101628.81;5083122;28;20038;-74
2022/05/18 02:33:03;;;;;;;4.70;1.40;;;;;;;8.40;59.79;101629.75;5082868;28;20025;-75
2022/05/18 02:35:29;;;;;;;3.08;1.40;;;;;;;8.42;59.70;101639.28;5083352;28;20288;-73
2022/05/18 02:37:54;;;;;;;4.00;1.40;;;;;;;8.37;59.48;101640.88;5083197;28;20024;-73
2022/05/18 02:40:19;;;;;;;5.75;1.48;;;;;;;8.37;59.38;101640.88;5083376;28;20048;-74
2022/05/18 02:42:45;;;;;;;2.22;1.27;;;;;;;8.34;59.23;101650.31;5082462;28;20066;-74
2022/05/18 02:45:10;;;;;;;2.35;1.23;;;;;;;8.24;59.07;101637.16;5083269;28;20047;-75
2022/05/18 02:47:36;;;;;;;4.13;1.30;;;;;;;8.24;59.05;101644.06;5083185;28;20052;-74
2022/05/18 02:50:02;;;;;;;4.13;1.50;;;;;;;8.27;58.98;101654.47;5083192;28;20115;-73
2022/05/18 02:52:27;;;;;;;2.65;1.60;;;;;;;8.20;58.96;101643.13;5083086;28;20477;-74
2022/05/18 02:57:36;;;;;;;5.78;1.80;;;;;;;8.18;58.74;101639.63;5083063;28;20054;-73
2022/05/18 03:00:04;;;;;;;2.33;1.00;;;;;;;8.12;58.67;101635.19;5083114;28;20029;-74
2022/05/18 03:02:29;;;;;;;3.75;1.33;;;;;;;8.14;58.42;101637.81;5082748;28;20031;-75
2022/05/18 03:04:54;;;;;;;3.83;1.52;;;;;;;8.17;58.40;101658.59;5082668;28;20036;-73
2022/05/18 03:07:20;;;;;;;3.50;1.33;;;;;;;8.13;58.44;101647.28;5082883;28;20128;-74
2022/05/18 03:09:45;;;;;;;6.38;1.45;;;;;;;8.19;58.31;101643.97;5064758;28;20017;-74
2022/05/18 03:12:10;;;;;;;3.83;1.33;;;;;;;8.41;58.14;101639.25;5083011;28;20064;-73
2022/05/18 03:14:36;;;;;;;4.43;1.27;;;;;;;8.67;57.37;101644.97;5082908;28;20021;-73
2022/05/18 03:17:01;;;;;;;4.80;0.90;;;;;;;8.91;56.77;101648.88;5082613;28;20479;-75
2022/05/18 03:19:27;;;;;;;1.95;1.30;;;;;;;9.20;55.58;101657.16;5082787;28;20052;-73
2022/05/18 03:24:37;;;;;;;6.03;1.40;;;;;;;9.49;54.23;101641.22;5082600;28;20082;-73
2022/05/18 03:27:03;;;;;;;4.38;1.25;;;;;;;9.59;53.91;101644.81;5082732;28;20029;-74
2022/05/18 03:29:28;;;;;;;4.03;1.45;;;;;;;9.78;53.07;101643.38;5064639;28;20028;-77
2022/05/18 03:31:54;;;;;;;4.97;1.70;;;;;;;9.82;52.67;101644.28;5064484;28;20169;-74
2022/05/18 03:34:19;;;;;;;4.70;1.75;;;;;;;9.96;52.07;101644.50;5082797;28;20040;-74
2022/05/18 03:36:44;;;;;;;9.43;2.22;;;;;;;9.96;51.92;101641.91;5082690;28;20024;-79
2022/05/18 03:39:10;;;;;;;6.80;2.05;;;;;;;10.07;51.09;101629.94;5082569;28;20048;-74
2022/05/18 03:41:36;;;;;;;4.80;1.90;;;;;;;10.16;50.72;101639.56;5082905;28;20048;-78
2022/05/18 03:44:03;;;;;;;3.53;1.58;;;;;;;10.20;49.90;101630.09;5064504;28;20092;-75
2022/05/18 03:46:28;;;;;;;3.65;1.42;;;;;;;10.21;49.65;101634.47;5082482;28;20491;-75
2022/05/18 03:48:53;;;;;;;5.10;2.40;;;;;;;10.29;49.42;101635.41;5082377;28;20032;-77
2022/05/18 03:51:19;;;;;;;7.20;2.40;;;;;;;10.43;49.33;101642.50;5082484;28;20020;-78
2022/05/18 03:53:46;;;;;;;6.18;2.30;;;;;;;10.53;48.34;101640.06;5083418;28;20025;-78
2022/05/18 03:56:11;;;;;;;5.07;2.13;;;;;;;10.53;48.01;101631.41;5086304;28;20020;-77
2022/05/18 03:58:37;;;;;;;5.90;2.03;;;;;;;10.70;47.69;101636.81;5086152;28;20107;-79
2022/05/18 04:01:08;;;;;;;7.53;1.88;;;;;;;10.83;47.21;101639.53;5086362;28;20040;-76
2022/05/18 04:03:35;;;;;;;4.20;2.10;;;;;;;10.88;46.91;101636.09;5068010;28;20021;-79
2022/05/18 04:06:00;;;;;;;6.00;1.80;;;;;;;10.93;46.62;101643.09;5086309;28;20067;-77
2022/05/18 04:08:26;;;;;;;5.18;1.33;;;;;;;10.94;46.65;101639.63;5086221;28;20020;-79
2022/05/18 04:10:53;;;;;;;4.28;1.60;;;;;;;11.10;46.08;101638.91;5085977;28;20046;-78
2022/05/18 04:13:20;;;;;;;4.95;1.70;;;;;;;11.14;46.31;101632.03;5067740;28;20020;-74
2022/05/18 04:15:45;;;;;;;3.25;1.73;;;;;;;11.38;45.74;101639.16;5086042;28;20036;-78
2022/05/18 04:18:11;;;;;;;5.47;2.28;;;;;;;11.50;45.19;101632.31;5085674;28;20038;-78
2022/05/18 04:20:38;;;;;;;6.15;1.60;;;;;;;11.63;45.15;101646.25;5085707;28;20130;-76
2022/05/18 04:23:04;;;;;;;6.00;2.15;;;;;;;11.73;45.02;101632.47;5085681;28;20024;-80
2022/05/18 04:25:29;;;;;;;4.05;1.48;;;;;;;11.96;44.46;101649.09;5085816;28;20035;-78
2022/05/18 04:27:55;;;;;;;4.82;1.77;;;;;;;12.10;44.18;101647.47;5067786;28;20101;-74
2022/05/18 04:30:24;;;;;;;3.83;1.90;;;;;;;12.21;43.99;101652.72;5085673;28;20047;-74
2022/05/18 04:32:51;;;;;;;3.10;1.60;;;;;;;12.26;43.62;101637.13;5085459;28;20028;-74
2022/05/18 04:35:19;;;;;;;4.40;1.63;;;;;;;12.56;43.66;101651.13;5085744;28;20122;-72
2022/05/18 04:37:44;;;;;;;4.93;1.65;;;;;;;12.96;42.79;101645.16;5085402;28;20028;-72
2022/05/18 04:40:11;;;;;;;5.68;1.55;;;;;;;13.25;42.64;101641.69;5085808;28;20024;-72
2022/05/18 04:42:36;;;;;;;3.67;1.70;;;;;;;13.68;41.84;101647.78;5067366;28;20025;-72
2022/05/18 04:45:07;;;;;;;5.40;1.80;;;;;;;13.85;40.91;101642.53;5085306;28;20029;-73
2022/05/18 04:47:32;;;;;;;2.80;1.33;;;;;;;14.14;40.01;101643.31;5085756;28;20084;-70
2022/05/18 04:49:58;;;;;;;2.55;1.17;;;;;;;14.07;39.55;101652.06;5085873;28;20076;-73
2022/05/18 04:52:24;;;;;;;4.32;1.83;;;;;;;13.99;39.90;101652.94;5085106;28;20127;-69
2022/05/18 04:54:49;;;;;;;4.43;1.50;;;;;;;14.06;39.50;101645.06;5085155;28;20500;-74
2022/05/18 04:57:16;;;;;;;2.33;1.35;;;;;;;14.08;39.83;101646.81;5085341;28;20445;-78
2022/05/18 04:59:41;;;;;;;5.43;1.30;;;;;;;14.06;39.69;101655.53;5085162;28;20032;-74
2022/05/18 05:02:07;;;;;;;3.33;1.55;;;;;;;14.40;39.94;101665.00;5085023;28;20028;-75
2022/05/18 05:04:33;;;;;;;3.42;1.30;;;;;;;14.68;38.69;101654.41;5085041;28;20047;-73
2022/05/18 05:06:59;;;;;;;4.13;2.05;;;;;;;14.65;39.00;101638.75;5084206;28;20032;-75
2022/05/18 05:09:25;;;;;;;2.83;1.50;;;;;;;14.76;38.86;101639.53;5085274;28;20036;-75
2022/05/18 05:11:52;;;;;;;5.30;1.50;;;;;;;14.92;38.53;101642.94;5085322;28;20055;-71
2022/05/18 05:14:18;;;;;;;3.60;1.42;;;;;;;15.26;38.22;101638.34;5085070;28;20024;-66
2022/05/18 05:16:43;;;;;;;5.78;1.60;;;;;;;15.61;38.27;101640.66;5084916;28;20050;-66
2022/05/18 05:19:09;;;;;;;4.10;1.50;;;;;;;16.27;37.30;101642.59;5084879;28;20020;-68
2022/05/18 05:21:36;;;;;;;3.88;1.25;;;;;;;16.84;35.79;101640.06;5084397;28;20032;-68
2022/05/18 05:24:02;;;;;;;4.43;1.40;;;;;;;17.14;35.26;101637.03;5084640;28;20080;-68
2022/05/18 05:26:28;;;;;;;4.05;1.23;;;;;;;17.67;35.50;101646.59;5084401;28;20043;-68
2022/05/18 05:28:53;;;;;;;4.82;2.05;;;;;;;18.20;33.25;101627.22;5084311;28;20092;-65
2022/05/18 05:31:18;;;;;;;4.32;1.30;;;;;;;17.91;33.12;101636.53;5084139;28;20043;-68
2022/05/18 05:33:44;;;;;;;4.80;1.80;;;;;;;17.76;32.04;101635.09;5083870;28;20024;-67
2022/05/18 05:36:09;;;;;;;2.95;1.60;;;;;;;17.22;33.47;101632.53;5083915;28;20103;-67
2022/05/18 05:38:35;;;;;;;2.22;1.25;;;;;;;17.42;34.58;101639.19;5083783;28;20045;-67
2022/05/18 05:41:01;;;;;;;5.00;1.60;;;;;;;17.73;32.93;101637.75;5083824;28;20035;-68
2022/05/18 05:43:29;;;;;;;6.57;1.40;;;;;;;17.92;33.37;101646.16;5083515;28;20047;-67
2022/05/18 05:45:58;;;;;;;4.45;1.00;;;;;;;18.26;32.94;101628.88;5083510;28;20434;-68
2022/05/18 05:48:25;;;;;;;4.50;1.38;;;;;;;18.68;32.38;101643.72;5082679;28;20033;-67
2022/05/18 05:50:50;;;;;;;1.45;0.95;;;;;;;19.18;30.71;101642.59;5083509;28;20017;-67
2022/05/18 05:53:16;;;;;;;8.32;2.72;;;;;;;18.98;31.45;101632.53;5083581;28;20024;-65
2022/05/18 05:55:41;;;;;;;5.97;1.33;;;;;;;19.03;31.18;101635.91;5083761;28;20020;-68
2022/05/18 05:58:06;;;;;;;3.17;1.20;;;;;;;19.17;30.35;101635.63;5083951;28;20025;-67
2022/05/18 06:00:32;;;;;;;6.10;1.27;;;;;;;19.06;29.88;101639.31;5083890;28;20043;-66
2022/05/18 06:02:57;;;;;;;4.45;1.52;;;;;;;18.57;31.13;101636.09;5083836;28;20024;-67
2022/05/18 06:05:23;;;;;;;4.03;1.42;;;;;;;18.56;31.61;101635.22;5084009;28;20059;-68
2022/05/18 06:07:48;;;;;;;2.50;1.10;;;;;;;19.08;30.29;101642.78;5065925;28;20031;-67
2022/05/18 06:10:14;;;;;;;5.15;1.05;;;;;;;19.21;30.49;101645.16;5083813;28;20032;-68
2022/05/18 06:12:39;;;;;;;7.40;1.10;;;;;;;19.43;30.66;101632.31;5083725;28;20058;-66
2022/05/18 06:15:06;;;;;;;5.88;1.52;;;;;;;19.65;29.94;101636.13;5083746;28;20464;-67
2022/05/18 06:17:32;;;;;;;2.08;1.23;;;;;;;20.11;29.86;101647.16;5083451;28;20017;-66
2022/05/18 06:19:58;;;;;;;5.15;1.50;;;;;;;20.50;28.35;101643.41;5083727;28;20031;-67
2022/05/18 06:22:23;;;;;;;3.75;1.65;;;;;;;20.51;27.90;101639.84;5083446;28;20096;-66
2022/05/18 06:24:51;;;;;;;9.38;1.85;;;;;;;20.33;28.26;101635.13;5083169;28;20029;-66
2022/05/18 06:27:17;;;;;;;4.03;1.33;;;;;;;20.40;28.61;101624.34;5083775;28;20032;-66
2022/05/18 06:29:42;;;;;;;5.97;1.20;;;;;;;20.52;27.84;101627.53;5083372;28;20388;-66
2022/05/18 06:32:08;;;;;;;6.57;1.50;;;;;;;20.38;27.80;101626.19;5083118;28;20016;-67
2022/05/18 06:34:33;;;;;;;2.63;1.27;;;;;;;20.30;27.83;101631.66;5083324;28;20074;-66
2022/05/18 06:36:58;;;;;;;4.00;1.27;;;;;;;20.26;27.70;101614.22;5083278;28;20056;-66
2022/05/18 06:39:24;;;;;;;2.55;1.10;;;;;;;20.38;27.19;101610.38;5082959;28;20123;-66
2022/05/18 06:41:50;;;;;;;3.92;1.05;;;;;;;19.92;27.27;101633.66;5083140;28;20355;-66
2022/05/18 06:44:16;;;;;;;3.33;1.30;;;;;;;19.35;27.47;101618.47;5083324;28;20039;-67
2022/05/18 06:46:42;;;;;;;2.55;1.35;;;;;;;19.11;27.87;101626.09;5065152;28;20078;-66
2022/05/18 06:49:09;;;;;;;3.70;1.33;;;;;;;18.88;28.61;101618.72;5082980;28;20032;-67
2022/05/18 06:51:38;;;;;;;4.05;1.50;;;;;;;18.92;29.12;101616.00;5083128;28;20049;-67
2022/05/18 06:54:04;;;;;;;5.85;1.80;;;;;;;19.11;29.18;101630.47;5082879;28;20051;-66
2022/05/18 06:56:32;;;;;;;2.28;1.13;;;;;;;19.37;28.20;101616.66;5083071;28;20020;-65
2022/05/18 06:58:58;;;;;;;3.47;1.20;;;;;;;19.38;27.83;101628.91;5082925;28;20017;-65
2022/05/18 07:01:25;;;;;;;4.35;1.40;;;;;;;19.12;28.16;101626.97;5064746;28;20017;-66
2022/05/18 07:03:51;;;;;;;3.25;1.05;;;;;;;18.97;28.59;101613.25;5082446;28;20037;-66
2022/05/18 07:06:19;;;;;;;3.05;1.35;;;;;;;19.27;27.72;101623.06;5082941;28;20028;-65
2022/05/18 07:08:45;;;;;;;3.25;1.20;;;;;;;18.75;28.64;101619.03;5082857;28;20062;-66
2022/05/18 07:11:12;;;;;;;8.30;1.25;;;;;;;18.61;28.83;101607.97;5082878;28;20100;-66
2022/05/18 07:13:38;;;;;;;2.10;1.05;;;;;;;18.73;28.41;101620.81;5082981;28;20024;-67
2022/05/18 07:16:04;;;;;;;3.60;1.40;;;;;;;18.53;28.65;101621.28;5082855;28;20437;-66
2022/05/18 07:18:31;;;;;;;1.38;0.80;;;;;;;18.43;28.36;101618.00;5082509;28;20031;-65
2022/05/18 07:20:58;;;;;;;5.45;1.90;;;;;;;18.20;28.69;101614.09;5082801;28;20113;-65
2022/05/18 07:23:25;;;;;;;3.90;1.40;;;;;;;17.94;28.81;101605.81;5082545;28;20075;-67
2022/05/18 07:25:54;;;;;;;4.78;2.28;;;;;;;18.06;28.84;101598.59;5082939;28;20020;-65
2022/05/18 07:28:20;;;;;;;4.35;1.60;;;;;;;17.88;29.21;101600.69;5083141;28;20028;-66
2022/05/18 07:30:45;;;;;;;2.72;1.00;;;;;;;18.19;28.43;101604.50;5086887;28;20020;-63
2022/05/18 07:33:11;;;;;;;4.55;1.25;;;;;;;17.84;28.61;101588.53;5086636;28;20153;-67
2022/05/18 07:35:37;;;;;;;4.28;1.00;;;;;;;17.81;29.13;101599.94;5086726;28;20013;-65
2022/05/18 07:38:03;;;;;;;3.20;1.30;;;;;;;17.90;28.59;101596.28;5086523;28;20052;-65
2022/05/18 07:40:28;;;;;;;3.78;1.13;;;;;;;17.49;28.94;101611.06;5086659;28;20029;-66
2022/05/18 07:42:56;;;;;;;1.98;0.88;;;;;;;17.57;28.74;101593.44;5086608;28;20071;-64
2022/05/18 07:45:23;;;;;;;1.95;1.23;;;;;;;17.41;28.04;101598.94;5086250;28;20017;-64
2022/05/18 07:47:50;;;;;;;2.08;1.00;;;;;;;16.91;28.75;101591.00;5086499;28;20021;-63
2022/05/18 07:50:16;;;;;;;4.43;1.23;;;;;;;16.63;29.53;101594.91;5086519;28;20024;-64
2022/05/18 07:52:43;;;;;;;2.33;1.05;;;;;;;16.58;29.47;101594.13;5086519;28;20024;-64
2022/05/18 07:55:08;;;;;;;4.05;1.40;;;;;;;16.50;29.38;101583.78;5086344;28;20075;-66
2022/05/18 07:57:33;;;;;;;4.22;1.70;;;;;;;16.56;29.66;101581.06;5086285;28;20024;-65
2022/05/18 07:59:59;;;;;;;2.58;1.10;;;;;;;16.84;29.17;101569.25;5086241;28;20032;-65
2022/05/18 08:02:30;;;;;;;1.23;0.90;;;;;;;17.09;28.68;101579.41;5086006;28;20020;-67
2022/05/18 08:04:56;;;;;;;4.20;1.00;;;;;;;16.98;28.42;101580.38;5086027;28;20361;-65
2022/05/18 08:07:21;;;;;;;2.08;1.20;;;;;;;16.79;28.34;101561.47;5086040;28;20020;-62
2022/05/18 08:15:15;;;;;;;3.15;1.08;;;;;;;16.54;28.68;101547.88;5086068;28;20028;-63
2022/05/18 08:17:43;;;;;;;2.08;0.90;;;;;;;16.33;29.43;101574.38;5085719;28;20020;-66
2022/05/18 08:20:13;;;;;;;2.60;0.90;;;;;;;16.62;29.24;101568.72;5086051;28;20024;-65
2022/05/18 08:22:38;;;;;;;2.83;1.20;;;;;;;16.95;29.32;101563.81;5085865;28;20036;-64
2022/05/18 08:25:04;;;;;;;1.92;1.02;;;;;;;17.40;28.44;101575.34;5085639;28;20020;-66
2022/05/18 08:27:29;;;;;;;1.75;0.90;;;;;;;17.47;27.95;101563.84;5085851;28;20054;-64
2022/05/18 08:30:03;;;;;;;2.97;1.15;;;;;;;17.43;27.35;101564.78;5085497;28;20031;-65
2022/05/18 08:32:28;;;;;;;3.58;1.02;;;;;;;17.23;27.55;101566.03;5067340;28;20091;-65
2022/05/18 08:34:54;;;;;;;2.53;0.93;;;;;;;17.24;28.24;101566.91;5085426;28;20084;-67
2022/05/18 08:37:19;;;;;;;2.42;1.10;;;;;;;17.88;27.65;101557.78;5085482;28;20020;-75
2022/05/18 08:39:45;;;;;;;1.80;0.90;;;;;;;18.55;26.24;101564.25;5084499;28;20044;-73
2022/05/18 08:42:11;;;;;;;1.50;1.13;;;;;;;19.06;25.40;101565.63;5084835;28;20028;-75
2022/05/18 08:44:37;;;;;;;3.22;1.10;;;;;;;19.53;24.67;101563.56;5085292;28;20036;-73
2022/05/18 08:47:32;;;;;;;5.50;1.20;;;;;;;19.97;23.88;101560.56;5085374;28;20050;-74
2022/05/18 08:50:00;;;;;;;4.93;1.55;;;;;;;20.08;22.59;101543.63;5085430;28;20036;-71
2022/05/18 08:52:54;;;;;;;4.88;1.50;;;;;;;19.88;23.40;101564.34;5085236;28;20028;-74
2022/05/18 08:55:41;;;;;;;2.13;1.10;;;;;;;19.84;22.67;101559.22;5054919;28;20029;-74
2022/05/18 08:58:12;;;;;;;2.00;0.93;;;;;;;19.97;22.60;101554.44;5085272;28;20044;-72
2022/05/18 09:00:45;;;;;;;7.33;1.40;;;;;;;20.09;23.26;101555.88;5085454;28;20024;-73
2022/05/18 09:03:17;;;;;;;2.90;1.20;;;;;;;20.97;22.16;101559.28;5085080;28;20095;-74
2022/05/18 09:05:48;;;;;;;2.13;1.00;;;;;;;21.49;22.35;101539.88;5084955;28;20025;-75
2022/05/18 09:08:20;;;;;;;1.45;0.80;;;;;;;21.97;20.33;101546.06;5085087;28;20107;-72
2022/05/18 09:10:49;;;;;;;;;;;;;;;21.81;20.54;101535.19;5085375;28;20052;-74
2022/05/18 09:13:15;;;;;;;3.15;1.02;;;;;;;21.89;20.89;101545.47;5084965;28;19971;-75
2022/05/18 09:15:53;;;;;;;3.15;0.93;;;;;;;22.56;20.13;101548.16;5085051;28;20024;-74
2022/05/18 09:18:30;;;;;;;1.95;0.90;;;;;;;22.58;19.96;101530.44;5084745;28;20021;-74
2022/05/18 09:21:03;;;;;;;2.65;0.98;;;;;;;22.74;19.69;101541.28;5084922;28;20032;-75
2022/05/18 09:23:33;;;;;;;3.65;1.15;;;;;;;22.92;19.02;101546.72;5084628;28;20547;-69
2022/05/18 09:26:23;;;;;;;1.48;0.93;;;;;;;23.37;19.21;101534.16;5084882;28;20042;-76
2022/05/18 09:29:13;;;;;;;4.30;2.38;;;;;;;23.85;17.39;101532.97;5084554;28;20024;-70
2022/05/18 09:31:59;;;;;;;6.10;2.10;;;;;;;23.10;18.66;101537.09;5084643;28;20033;-75
2022/05/18 09:34:48;;;;;;;2.72;1.05;;;;;;;23.26;18.65;101539.06;5084143;28;20021;-75
2022/05/18 09:37:22;;;;;;;2.88;0.88;;;;;;;22.93;17.77;101521.97;5084337;28;20157;-70
2022/05/18 09:39:58;;;;;;;3.15;1.30;;;;;;;22.08;18.91;101536.84;5084228;28;20044;-71
2022/05/18 09:42:30;;;;;;;1.77;0.98;;;;;;;21.65;19.36;101525.19;5084096;28;20020;-70
2022/05/18 09:45:15;;;;;;;3.88;1.63;;;;;;;21.27;20.01;101522.16;5083794;28;20029;-72
2022/05/18 09:47:45;;;;;;;3.58;1.33;;;;;;;21.37;20.04;101510.38;5084234;28;20032;-73
2022/05/18 09:50:12;;;;;;;2.17;0.90;;;;;;;22.00;19.00;101486.91;5084386;28;20575;-68
2022/05/18 09:52:39;;;;;;;2.38;0.90;;;;;;;21.64;19.51;101489.13;5083539;28;20427;-72
2022/05/18 09:55:08;;;;;;;1.73;1.10;;;;;;;21.69;18.73;101491.59;5084040;28;20013;-69
2022/05/18 09:57:40;;;;;;;1.55;0.88;;;;;;;21.17;18.99;101503.16;5083502;28;20046;-71
2022/05/18 10:00:29;;;;;;;5.03;1.08;;;;;;;20.87;20.43;101487.44;5065941;28;20021;-74
2022/05/18 10:08:44;;;;;;;3.80;1.13;;;;;;;21.77;19.47;101470.19;5084004;28;20116;-61
2022/05/18 10:11:16;;;;;;;3.28;1.20;;;;;;;22.27;19.01;101463.78;5083337;28;20249;-62
2022/05/18 10:13:53;;;;;;;3.47;1.17;;;;;;;22.78;18.26;101463.44;5065259;28;20027;-63
2022/05/18 10:16:36;;;;;;;1.70;1.00;;;;;;;23.21;16.65;101457.16;5083603;28;20029;-69
2022/05/18 10:19:03;;;;;;;3.78;1.63;;;;;;;23.14;16.53;101480.44;5083401;28;20095;-68
2022/05/18 10:21:51;;;;;;;2.58;1.10;;;;;;;23.35;16.31;101459.22;5083264;28;20046;-68
2022/05/18 10:24:27;;;;;;;4.20;0.90;;;;;;;23.23;16.34;101454.44;5083457;28;20433;-67
2022/05/18 10:27:16;;;;;;;1.95;0.90;;;;;;;23.70;16.34;101453.22;5083000;28;20020;-68
2022/05/18 10:29:43;;;;;;;5.43;1.30;;;;;;;23.73;15.79;101439.81;5083269;28;20021;-68
2022/05/18 10:32:19;;;;;;;2.10;1.10;;;;;;;23.77;15.71;101444.03;5064747;28;20089;-68
2022/05/18 10:34:47;;;;;;;4.05;1.02;;;;;;;24.07;14.63;101441.75;5082638;28;20548;-68
2022/05/18 10:37:23;;;;;;;6.93;1.20;;;;;;;24.12;14.47;101458.31;5082752;28;20029;-68
2022/05/18 10:39:49;;;;;;;1.75;0.65;;;;;;;24.17;13.83;101447.50;5082885;28;20040;-70
2022/05/18 10:42:27;;;;;;;1.58;0.75;;;;;;;23.37;14.28;101438.78;5082892;28;20123;-69
2022/05/18 10:44:55;;;;;;;2.22;1.00;;;;;;;22.63;15.07;101437.66;5082767;28;20023;-69
2022/05/18 10:47:36;;;;;;;6.57;0.93;;;;;;;22.44;15.60;101435.78;5082704;28;20023;-66
2022/05/18 10:50:24;;;;;;;1.10;0.87;;;;;;;22.75;15.29;101426.53;5083025;28;20021;-68
2022/05/18 10:52:58;;;;;;;3.60;1.10;;;;;;;22.46;14.86;101365.13;5082710;28;20027;-68
2022/05/18 10:55:25;;;;;;;2.50;1.17;;;;;;;21.81;15.56;101402.19;5082706;28;20107;-68
2022/05/18 10:57:57;;;;;;;3.47;1.50;;;;;;;21.32;15.85;101405.78;5082806;28;20441;-68
2022/05/18 11:00:29;;;;;;;1.20;0.75;;;;;;;20.94;16.46;101404.53;5082758;28;20494;-68
2022/05/18 11:03:08;;;;;;;4.22;0.90;;;;;;;20.89;16.22;101395.88;5082037;28;20036;-68
2022/05/18 11:05:48;;;;;;;0.90;0.70;;;;;;;20.70;16.04;101387.78;5082391;28;20382;-69
2022/05/18 11:08:16;;;;;;;1.90;0.90;;;;;;;20.47;16.22;101392.94;5082656;28;20029;-68
2022/05/18 11:11:08;;;;;;;2.50;0.82;;;;;;;20.26;16.32;101387.47;5082363;28;20107;-67
2022/05/18 11:13:33;;;;;;;1.27;0.80;;;;;;;20.63;15.52;101395.03;5071288;28;20037;-69
2022/05/18 11:16:04;;;;;;;2.88;1.00;;;;;;;20.44;15.62;101393.03;5082296;28;20465;-68
2022/05/18 11:18:44;;;;;;;2.10;0.82;;;;;;;20.40;15.82;101392.28;5082484;28;20028;-67
2022/05/18 11:21:23;;;;;;;6.30;1.10;;;;;;;20.74;16.12;101376.19;5082572;28;20032;-68
2022/05/18 11:24:20;;;;;;;4.35;0.90;;;;;;;20.85;15.08;101370.50;5082423;28;20055;-66
2022/05/18 11:27:00;;;;;;;1.75;0.75;;;;;;;20.79;15.08;101377.75;5082587;28;20048;-67
2022/05/18 11:30:01;;;;;;;1.55;0.80;;;;;;;20.70;14.18;101371.94;5082441;28;20058;-68
2022/05/18 11:32:26;;;;;;;2.10;0.63;;;;;;;20.50;14.14;101377.00;5082758;28;20100;-67
2022/05/18 11:34:52;;;;;;;1.33;0.80;;;;;;;20.38;14.63;101373.03;5082476;28;20040;-67
2022/05/18 11:37:35;;;;;;;4.93;1.05;;;;;;;20.38;14.77;101365.13;5082716;28;20035;-68
2022/05/18 11:40:29;;;;;;;1.40;0.80;;;;;;;20.23;15.03;101361.22;5082431;28;20045;-68
2022/05/18 11:43:25;;;;;;;1.38;0.70;;;;;;;19.98;15.84;101356.75;5082796;28;20029;-68
2022/05/18 11:46:00;;;;;;;2.85;1.00;;;;;;;19.88;16.21;101355.31;5082559;28;20028;-67
2022/05/18 11:48:27;;;;;;;4.55;1.35;;;;;;;19.93;15.09;101356.03;5082535;28;20196;-66
2022/05/18 11:51:19;;;;;;;1.65;0.80;;;;;;;19.93;13.71;101356.03;5082657;28;20445;-67
2022/05/18 11:54:11;;;;;;;1.33;0.90;;;;;;;19.93;13.85;101345.50;5082465;28;20054;-66